createdAt,value
2023-01-13T00:00:19.901Z,1006.798258
2023-01-13T00:05:19.561Z,1006.783869
2023-01-13T00:10:19.699Z,1006.817529
2023-01-13T00:15:19.664Z,1006.786785
2023-01-13T00:20:19.570Z,1006.687810
2023-01-13T00:25:19.761Z,1006.563890
2023-01-13T00:30:19.549Z,1006.559151
2023-01-13T00:35:19.766Z,1006.528465
2023-01-13T00:40:19.927Z,1006.498196
2023-01-13T00:45:19.712Z,1006.388191
2023-01-13T00:50:19.602Z,1006.281409
2023-01-13T00:55:19.592Z,1006.204786
2023-01-13T01:00:19.749Z,1006.231212
2023-01-13T01:05:19.665Z,1006.273312
2023-01-13T01:10:19.508Z,1006.300000
2023-01-13T01:15:20.266Z,1006.373044
2023-01-13T01:20:19.910Z,1006.387789
2023-01-13T01:25:19.958Z,1006.400583
2023-01-13T01:30:19.552Z,1006.447018
2023-01-13T01:35:20.028Z,1006.436935
2023-01-13T01:40:19.651Z,1006.412355
2023-01-13T01:45:19.671Z,1006.353454
2023-01-13T01:50:19.513Z,1006.386573
2023-01-13T01:55:19.638Z,1006.313609
2023-01-13T02:00:19.587Z,1006.253610
2023-01-13T02:05:19.711Z,1006.185820
2023-01-13T02:10:19.677Z,1006.095913
2023-01-13T02:15:17.424Z,1005.999654
2023-01-13T02:20:17.000Z,1005.963212
2023-01-13T02:25:17.167Z,1005.981520
2023-01-13T02:35:17.465Z,1005.716643
2023-01-13T02:40:17.031Z,1005.655384
2023-01-13T02:45:17.069Z,1005.600906
2023-01-13T02:50:17.072Z,1005.599214
2023-01-13T02:55:17.054Z,1005.554227
2023-01-13T03:00:17.085Z,1005.422645
2023-01-13T03:05:17.035Z,1005.304537
2023-01-13T03:10:16.948Z,1005.287591
2023-01-13T03:15:17.590Z,1005.185319
2023-01-13T03:20:17.343Z,1005.197523
2023-01-13T03:25:17.144Z,1005.258621
2023-01-13T03:30:17.103Z,1005.291670
2023-01-13T03:35:17.013Z,1005.337595
2023-01-13T03:40:17.233Z,1005.344037
2023-01-13T03:45:16.960Z,1005.354040
2023-01-13T03:50:17.008Z,1005.372186
2023-01-13T03:55:17.002Z,1005.224590
2023-01-13T04:00:17.041Z,1005.125278
2023-01-13T04:05:16.939Z,1005.025116
2023-01-13T04:10:17.187Z,1005.000368
2023-01-13T04:15:17.268Z,1005.126698
2023-01-13T04:20:16.955Z,1005.101021
2023-01-13T04:25:17.010Z,1005.087717
2023-01-13T04:30:16.937Z,1005.099241
2023-01-13T04:35:16.989Z,1005.012223
2023-01-13T04:40:17.095Z,1004.956045
2023-01-13T04:45:16.883Z,1005.129401
2023-01-13T04:50:17.139Z,1005.232174
2023-01-13T04:55:17.010Z,1005.362737
2023-01-13T05:00:16.994Z,1005.347905
2023-01-13T05:05:17.046Z,1005.361712
2023-01-13T05:10:17.092Z,1005.405013
2023-01-13T05:15:18.302Z,1005.498900
2023-01-13T05:20:17.223Z,1005.589906
2023-01-13T05:25:18.066Z,1005.635920
2023-01-13T05:30:17.459Z,1005.699219
2023-01-13T05:35:17.012Z,1005.698118
2023-01-13T05:40:16.904Z,1005.603058
2023-01-13T05:45:16.865Z,1005.601968
2023-01-13T05:50:17.206Z,1005.643923
2023-01-13T05:55:17.502Z,1005.636392
2023-01-13T06:00:17.192Z,1005.658589
2023-01-13T06:05:17.051Z,1005.708914
2023-01-13T06:10:17.646Z,1005.725348
2023-01-13T06:15:31.925Z,1005.733231
2023-01-13T06:20:16.899Z,1005.749089
2023-01-13T06:25:17.000Z,1005.776628
2023-01-13T06:30:17.028Z,1005.708926
2023-01-13T06:35:17.160Z,1005.679436
2023-01-13T06:40:17.534Z,1005.612245
2023-01-13T06:45:17.765Z,1005.631650
2023-01-13T06:50:17.326Z,1005.665580
2023-01-13T06:55:17.476Z,1005.728857
2023-01-13T07:00:17.496Z,1005.724402
2023-01-13T07:05:16.841Z,1005.629543
2023-01-13T07:10:17.165Z,1005.581995
2023-01-13T07:15:17.342Z,1005.546305
2023-01-13T07:20:16.971Z,1005.544690
2023-01-13T07:25:16.907Z,1005.538658
2023-01-13T07:30:17.265Z,1005.606941
2023-01-13T07:35:16.939Z,1005.591598
2023-01-13T07:40:16.785Z,1005.580148
2023-01-13T07:45:16.853Z,1005.662077
2023-01-13T07:50:16.954Z,1005.662398
2023-01-13T07:55:16.936Z,1005.646314
2023-01-13T08:00:16.957Z,1005.572261
2023-01-13T08:05:16.993Z,1005.605895
2023-01-13T08:10:17.097Z,1005.639529
2023-01-13T08:15:17.197Z,1005.658250
2023-01-13T08:20:17.146Z,1005.664988
2023-01-13T08:25:16.944Z,1005.730709
2023-01-13T08:30:16.961Z,1006.326591
2023-01-13T08:35:17.264Z,1007.074626
2023-01-13T08:40:17.412Z,1007.068446
2023-01-13T08:45:16.945Z,1007.005147
2023-01-13T08:50:17.206Z,1007.039891
2023-01-13T08:55:19.269Z,1007.028329
2023-01-13T09:00:17.425Z,1007.025672
2023-01-13T09:05:17.821Z,1007.007059
2023-01-13T09:10:17.020Z,1007.000552
2023-01-13T09:15:17.287Z,1007.144109
2023-01-13T09:20:16.893Z,1007.289582
2023-01-13T09:25:16.915Z,1007.357516
2023-01-13T09:30:16.828Z,1007.408256
2023-01-13T09:35:16.884Z,1007.491675
2023-01-13T09:40:16.950Z,1007.566473
2023-01-13T09:45:16.847Z,1007.536847
2023-01-13T09:50:16.858Z,1007.444003
2023-01-13T09:55:16.933Z,1007.260169
2023-01-13T10:00:16.913Z,1007.172505
2023-01-13T10:05:16.882Z,1007.097593
2023-01-13T10:10:16.894Z,1006.980262
2023-01-13T10:15:17.241Z,1006.931565
2023-01-13T10:20:17.091Z,1006.825588
2023-01-13T10:25:16.826Z,1006.598999
2023-01-13T10:30:17.037Z,1006.588914
2023-01-13T10:35:17.049Z,1006.825761
2023-01-13T10:40:16.835Z,1006.767270
2023-01-13T10:45:17.627Z,1006.727163
2023-01-13T10:50:17.143Z,1006.984246
2023-01-13T10:55:16.978Z,1007.007243
2023-01-13T11:00:16.794Z,1006.974461
2023-01-13T11:05:16.867Z,1007.075377
2023-01-13T11:10:16.936Z,1007.198821
2023-01-13T11:15:17.392Z,1007.235373
2023-01-13T11:20:17.010Z,1007.222510
2023-01-13T11:25:16.885Z,1007.215831
2023-01-13T11:30:16.851Z,1007.317944
2023-01-13T11:35:16.906Z,1007.332178
2023-01-13T11:40:16.803Z,1007.436778
2023-01-13T11:45:16.931Z,1007.359986
2023-01-13T11:50:16.759Z,1007.300875
2023-01-13T11:55:17.283Z,1007.172856
2023-01-13T12:00:16.899Z,1007.208230
2023-01-13T12:05:16.838Z,1007.218559
2023-01-13T12:10:16.818Z,1007.209837
2023-01-13T12:15:17.119Z,1007.151015
2023-01-13T12:20:16.928Z,1007.180826
2023-01-13T12:25:16.826Z,1007.130172
2023-01-13T12:30:16.829Z,1007.108107
2023-01-13T12:35:16.870Z,1007.094460
2023-01-13T12:40:16.842Z,1007.021964
2023-01-13T12:45:18.491Z,1007.005855
2023-01-13T12:50:17.123Z,1006.978086
2023-01-13T12:55:16.905Z,1006.977251
2023-01-13T13:00:16.880Z,1007.020825
2023-01-13T13:05:16.778Z,1007.105226
2023-01-13T13:10:16.839Z,1007.101302
2023-01-13T13:15:17.280Z,1007.180569
2023-01-13T13:20:16.799Z,1007.140452
2023-01-13T13:25:16.831Z,1007.156406
2023-01-13T13:30:16.813Z,1007.169839
2023-01-13T13:35:16.870Z,1007.156893
2023-01-13T13:40:16.848Z,1007.003957
2023-01-13T13:45:16.891Z,1006.988166
2023-01-13T13:50:16.828Z,1006.980136
2023-01-13T13:55:16.848Z,1007.026352
2023-01-13T14:00:16.713Z,1007.124281
2023-01-13T14:05:16.752Z,1007.196387
2023-01-13T14:10:17.165Z,1007.313020
2023-01-13T14:15:16.968Z,1007.512358
2023-01-13T14:20:16.765Z,1008.047282
2023-01-13T14:25:16.829Z,1008.080259
2023-01-13T14:30:16.821Z,1008.117891
2023-01-13T14:35:16.865Z,1008.312161
2023-01-13T14:40:17.025Z,1008.306092
2023-01-13T14:45:17.058Z,1008.142061
2023-01-13T14:50:16.741Z,1008.114382
2023-01-13T14:55:16.636Z,1008.130018
2023-01-13T15:00:16.705Z,1008.161761
2023-01-13T15:05:16.741Z,1008.173774
2023-01-13T15:10:16.708Z,1008.233241
2023-01-13T15:15:16.991Z,1008.205169
2023-01-13T15:20:16.880Z,1008.195874
2023-01-13T15:25:16.890Z,1008.219590
2023-01-13T15:30:19.221Z,1008.188354
2023-01-13T15:35:19.166Z,1008.207765
2023-01-13T15:40:19.129Z,1008.267515
2023-01-13T15:45:19.149Z,1008.322437
2023-01-13T15:50:19.330Z,1008.323904
2023-01-13T15:55:19.140Z,1008.257728
2023-01-13T16:00:19.216Z,1008.360120
2023-01-13T16:05:19.229Z,1008.438616
2023-01-13T16:10:19.236Z,1008.653063
2023-01-13T16:15:19.377Z,1008.863867
2023-01-13T16:20:19.105Z,1008.962849
2023-01-13T16:25:19.322Z,1008.949851
2023-01-13T16:30:19.153Z,1008.913398
2023-01-13T16:35:19.702Z,1008.968297
2023-01-13T16:40:19.197Z,1008.965500
2023-01-13T16:45:19.210Z,1009.008334
2023-01-13T16:50:21.669Z,1008.943456
2023-01-13T16:55:19.444Z,1008.967686
2023-01-13T17:00:19.144Z,1009.119711
2023-01-13T17:05:19.355Z,1009.260913
2023-01-13T17:10:19.252Z,1009.326103
2023-01-13T17:15:19.603Z,1009.391901
2023-01-13T17:20:19.218Z,1009.575017
2023-01-13T17:25:19.146Z,1009.757214
2023-01-13T17:30:19.199Z,1009.884176
2023-01-13T17:35:19.232Z,1009.983937
2023-01-13T17:40:19.754Z,1009.989654
2023-01-13T17:45:19.173Z,1010.024315
2023-01-13T17:50:19.219Z,1010.070731
2023-01-13T17:55:19.165Z,1010.115789
2023-01-13T18:00:19.522Z,1010.160940
2023-01-13T18:05:19.209Z,1010.138249
2023-01-13T18:10:19.292Z,1010.144502
2023-01-13T18:15:19.283Z,1010.220386
2023-01-13T18:20:19.511Z,1010.234415
2023-01-13T18:25:19.996Z,1010.276370
2023-01-13T18:30:19.230Z,1010.298756
2023-01-13T18:35:19.184Z,1010.376890
2023-01-13T18:40:19.131Z,1010.494240
2023-01-13T18:45:19.456Z,1010.551907
2023-01-13T18:50:19.171Z,1010.634508
2023-01-13T18:55:19.324Z,1010.675152
2023-01-13T19:00:19.125Z,1010.763387
2023-01-13T19:05:19.133Z,1010.835387
2023-01-13T19:10:19.132Z,1010.824090
2023-01-13T19:15:19.627Z,1010.875004
2023-01-13T19:20:19.089Z,1010.910929
2023-01-13T19:25:19.263Z,1010.879967
2023-01-13T19:30:19.570Z,1010.945841
2023-01-13T19:35:19.209Z,1011.034772
2023-01-13T19:40:19.515Z,1011.008664
2023-01-13T19:45:19.181Z,1011.049573
2023-01-13T19:50:19.126Z,1011.110263
2023-01-13T19:55:19.367Z,1011.200680
2023-01-13T20:00:19.050Z,1011.267224
2023-01-13T20:05:19.099Z,1011.342151
2023-01-13T20:10:19.114Z,1011.474234
2023-01-13T20:15:19.370Z,1011.601971
2023-01-13T20:20:19.096Z,1011.636888
2023-01-13T20:25:19.138Z,1011.685874
2023-01-13T20:30:19.246Z,1011.723811
2023-01-13T20:35:19.194Z,1011.723637
2023-01-13T20:40:19.223Z,1011.718791
2023-01-13T20:45:19.186Z,1011.733109
2023-01-13T20:50:19.289Z,1011.767079
2023-01-13T20:55:19.113Z,1011.884128
2023-01-13T21:00:19.712Z,1012.012658
2023-01-13T21:05:19.136Z,1012.092379
2023-01-13T21:10:19.160Z,1012.160401
2023-01-13T21:15:19.260Z,1012.242305
2023-01-13T21:20:19.251Z,1012.355861
2023-01-13T21:25:19.451Z,1012.526350
2023-01-13T21:30:19.094Z,1012.575160
2023-01-13T21:35:19.128Z,1012.580051
2023-01-13T21:40:19.129Z,1012.629913
2023-01-13T21:45:16.668Z,1012.658119
2023-01-13T21:50:16.570Z,1012.624651
2023-01-13T21:55:16.698Z,1012.625795
2023-01-13T22:00:16.657Z,1012.606714
2023-01-13T22:05:16.587Z,1012.694858
2023-01-13T22:10:16.717Z,1012.791687
2023-01-13T22:15:16.798Z,1012.823457
2023-01-13T22:20:16.845Z,1012.858686
2023-01-13T22:25:16.638Z,1012.850170
2023-01-13T22:30:16.589Z,1012.834277
2023-01-13T22:35:16.914Z,1012.903261
2023-01-13T22:40:16.792Z,1012.880868
2023-01-13T22:45:16.559Z,1012.809667
2023-01-13T22:50:16.665Z,1012.804171
2023-01-13T22:55:16.691Z,1012.799756
2023-01-13T23:05:16.750Z,1013.037745
2023-01-13T23:10:16.569Z,1013.091236
2023-01-13T23:15:16.652Z,1013.126500
2023-01-13T23:20:16.677Z,1013.130969
2023-01-13T23:25:16.590Z,1013.167433
2023-01-13T23:30:16.515Z,1013.186571
2023-01-13T23:35:16.943Z,1013.169593
2023-01-13T23:40:16.655Z,1013.197143
2023-01-13T23:45:16.528Z,1013.177108
2023-01-13T23:50:16.708Z,1013.223778
2023-01-13T23:55:16.577Z,1013.300568
